Time;durP1;ratioP1;P1;durP2;ratioP2;P2;SDS_P1;SDS_P2;PMS_P1;PMS_P2;Temp;Humidity;BMP_temperature;BMP_pressure;BME280_temperature;BME280_humidity;BME280_pressure;Samples;Min_cycle;Max_cycle;Signal;HPM_P1;HPM_P2
2023/12/21 00:02:10;;;;;;;6.18;1.50;;;9.50;99.90;;;;;;5066104;28;20056;-70
2023/12/21 00:04:35;;;;;;;0.15;0.15;;;9.60;99.90;;;;;;5068174;28;20037;-68
2023/12/21 00:07:01;;;;;;;1.48;0.45;;;9.60;99.90;;;;;;5057237;28;20289;-68
2023/12/21 00:09:26;;;;;;;0.40;0.40;;;9.50;99.90;;;;;;5060198;28;20063;-69
2023/12/21 00:11:52;;;;;;;7.13;0.80;;;9.50;99.90;;;;;;5061248;28;20037;-71
2023/12/21 00:14:17;;;;;;;0.52;0.52;;;9.50;99.90;;;;;;5052303;28;20115;-70
2023/12/21 00:16:43;;;;;;;0.90;0.73;;;9.50;99.90;;;;;;5066718;28;20037;-70
2023/12/21 00:19:09;;;;;;;0.55;0.55;;;9.50;99.90;;;;;;5057473;28;20043;-69
2023/12/21 00:21:34;;;;;;;0.45;0.45;;;9.50;99.90;;;;;;5065098;28;20110;-68
2023/12/21 00:24:00;;;;;;;0.52;0.52;;;9.60;99.90;;;;;;5061561;28;20060;-70
2023/12/21 00:26:25;;;;;;;0.63;0.38;;;9.50;99.90;;;;;;5057733;28;20078;-71
2023/12/21 00:28:52;;;;;;;0.95;0.80;;;9.50;99.90;;;;;;5065423;28;20051;-71
2023/12/21 00:31:17;;;;;;;0.10;0.10;;;9.60;99.90;;;;;;5059740;28;20483;-68
2023/12/21 00:33:43;;;;;;;4.20;0.40;;;9.50;99.90;;;;;;5050288;28;20041;-69
2023/12/21 00:36:15;;;;;;;1.10;0.45;;;9.60;99.90;;;;;;5049032;28;20091;-68
2023/12/21 00:38:41;;;;;;;0.30;0.17;;;9.50;99.90;;;;;;5051283;28;20036;-69
2023/12/21 00:41:06;;;;;;;0.30;0.25;;;9.60;99.90;;;;;;5054890;28;20501;-67
2023/12/21 00:43:32;;;;;;;0.15;0.15;;;9.50;99.90;;;;;;5047724;28;20458;-73
2023/12/21 00:45:57;;;;;;;0.10;0.10;;;9.60;99.90;;;;;;5049737;28;20064;-70
2023/12/21 00:48:23;;;;;;;0.15;0.15;;;9.60;99.90;;;;;;5051994;28;20083;-71
2023/12/21 00:50:48;;;;;;;0.70;0.20;;;9.60;99.90;;;;;;5052133;28;20036;-69
2023/12/21 00:53:15;;;;;;;0.75;0.75;;;9.60;99.90;;;;;;5059965;28;20032;-70
2023/12/21 00:55:41;;;;;;;0.40;0.40;;;9.60;99.90;;;;;;5065336;28;20395;-68
2023/12/21 00:58:06;;;;;;;0.95;0.30;;;9.60;99.90;;;;;;5067343;28;20048;-68
2023/12/21 01:00:32;;;;;;;0.98;0.35;;;9.60;99.90;;;;;;5056106;28;20040;-70
2023/12/21 01:02:57;;;;;;;1.08;0.47;;;9.60;99.90;;;;;;5065574;28;20040;-71
2023/12/21 01:05:23;;;;;;;0.38;0.20;;;9.60;99.90;;;;;;5068008;28;20041;-73
2023/12/21 01:07:48;;;;;;;1.17;0.40;;;9.60;99.90;;;;;;5059313;28;20049;-69
2023/12/21 01:10:14;;;;;;;0.00;0.00;;;9.60;99.90;;;;;;5068480;28;20476;-69
2023/12/21 01:12:40;;;;;;;0.70;0.70;;;9.60;99.90;;;;;;5061474;28;20578;-71
2023/12/21 01:15:07;;;;;;;0.95;0.20;;;9.60;99.90;;;;;;5059936;28;20182;-70
2023/12/21 01:17:33;;;;;;;0.47;0.32;;;9.60;99.90;;;;;;5065111;28;20037;-71
2023/12/21 01:20:00;;;;;;;0.50;0.50;;;9.60;99.90;;;;;;5069330;28;20176;-73
2023/12/21 01:22:25;;;;;;;0.50;0.50;;;9.50;99.90;;;;;;5059519;28;20135;-70
2023/12/21 01:24:51;;;;;;;0.35;0.30;;;9.60;99.90;;;;;;5069071;28;20136;-68
2023/12/21 01:27:17;;;;;;;0.57;0.35;;;9.60;99.90;;;;;;5057574;28;20553;-71
2023/12/21 01:29:43;;;;;;;0.68;0.68;;;9.60;99.90;;;;;;5066250;28;20041;-72
2023/12/21 01:32:08;;;;;;;0.10;0.10;;;9.60;99.90;;;;;;5060170;28;20411;-71
2023/12/21 01:34:34;;;;;;;1.58;0.65;;;9.60;99.90;;;;;;5057911;28;20574;-70
2023/12/21 01:36:59;;;;;;;0.30;0.30;;;9.70;99.90;;;;;;5085917;28;20057;-71
2023/12/21 01:39:25;;;;;;;2.58;0.38;;;9.70;99.90;;;;;;5053352;28;20136;-70
2023/12/21 01:41:50;;;;;;;1.10;0.47;;;9.70;99.90;;;;;;5065347;28;20047;-71
2023/12/21 01:44:16;;;;;;;0.10;0.10;;;9.70;99.90;;;;;;5062573;28;20041;-69
2023/12/21 01:46:43;;;;;;;1.08;0.40;;;9.70;99.90;;;;;;5040201;28;20506;-71
2023/12/21 01:49:09;;;;;;;1.25;1.17;;;9.70;99.90;;;;;;5054242;28;20333;-72
2023/12/21 01:51:35;;;;;;;4.20;1.10;;;9.70;99.90;;;;;;5057432;28;20494;-70
2023/12/21 01:54:04;;;;;;;0.80;0.30;;;9.60;99.90;;;;;;5073871;28;20040;-72
2023/12/21 01:56:32;;;;;;;0.10;0.10;;;9.70;99.90;;;;;;5049101;28;20114;-75
2023/12/21 01:58:59;;;;;;;0.40;0.40;;;9.60;99.90;;;;;;5071813;28;20434;-69
2023/12/21 02:01:26;;;;;;;0.20;0.20;;;9.60;99.90;;;;;;5065962;28;20060;-68
2023/12/21 02:03:53;;;;;;;0.10;0.10;;;9.50;99.90;;;;;;5068632;28;20526;-70
2023/12/21 02:06:18;;;;;;;1.58;1.20;;;9.50;99.90;;;;;;5064942;28;20048;-70
2023/12/21 02:08:44;;;;;;;0.55;0.55;;;9.50;99.90;;;;;;5069376;28;20059;-72
2023/12/21 02:11:10;;;;;;;1.00;0.98;;;9.50;99.90;;;;;;5069370;28;20032;-75
2023/12/21 02:13:36;;;;;;;8.40;0.77;;;9.50;99.90;;;;;;5063895;28;20041;-74
2023/12/21 02:16:09;;;;;;;0.20;0.20;;;9.40;99.90;;;;;;5070189;28;20439;-73
2023/12/21 02:18:35;;;;;;;0.25;0.20;;;9.40;99.90;;;;;;5062171;28;20090;-71
2023/12/21 02:21:02;;;;;;;0.30;0.30;;;9.40;99.90;;;;;;5064393;28;20063;-77
2023/12/21 02:23:29;;;;;;;0.10;0.10;;;9.40;99.90;;;;;;5052698;28;20040;-73
2023/12/21 02:25:55;;;;;;;0.10;0.10;;;9.40;99.90;;;;;;5053903;28;20037;-73
2023/12/21 02:28:21;;;;;;;1.75;0.30;;;9.30;99.90;;;;;;5062411;28;20391;-72
2023/12/21 02:30:47;;;;;;;0.13;0.10;;;9.30;99.90;;;;;;5068506;28;20041;-72
2023/12/21 02:33:13;;;;;;;0.20;0.20;;;9.30;99.90;;;;;;5067271;28;20049;-76
2023/12/21 02:35:39;;;;;;;0.20;0.20;;;9.30;99.90;;;;;;5069177;28;20045;-70
2023/12/21 02:38:05;;;;;;;0.13;0.13;;;9.40;99.90;;;;;;5070357;28;20048;-70
2023/12/21 02:40:31;;;;;;;0.10;0.10;;;9.30;99.90;;;;;;5069405;28;20503;-76
2023/12/21 02:42:56;;;;;;;0.55;0.55;;;9.30;99.90;;;;;;5067937;28;20094;-70
2023/12/21 02:45:22;;;;;;;0.22;0.22;;;9.30;99.90;;;;;;5070139;28;20236;-74
2023/12/21 02:47:47;;;;;;;4.90;0.32;;;9.40;99.90;;;;;;5062014;28;20033;-70
2023/12/21 02:50:13;;;;;;;0.47;0.30;;;9.30;99.90;;;;;;5061693;28;20095;-74
2023/12/21 02:52:38;;;;;;;0.10;0.10;;;9.30;99.90;;;;;;5060407;28;20049;-70
2023/12/21 02:55:04;;;;;;;0.20;0.20;;;9.30;99.90;;;;;;5084368;28;20036;-76
2023/12/21 02:57:29;;;;;;;7.32;0.85;;;9.30;99.90;;;;;;5068331;28;20446;-75
2023/12/21 02:59:55;;;;;;;0.20;0.20;;;9.30;99.90;;;;;;5067768;28;20044;-71
2023/12/21 03:02:21;;;;;;;0.35;0.20;;;9.30;99.90;;;;;;5060219;28;20380;-71
2023/12/21 03:04:46;;;;;;;1.55;0.90;;;9.30;99.90;;;;;;5099408;28;20480;-71
2023/12/21 03:07:12;;;;;;;1.75;1.08;;;9.30;99.90;;;;;;5062600;28;20372;-71
2023/12/21 03:09:37;;;;;;;0.20;0.20;;;9.30;99.90;;;;;;5069085;28;20832;-73
2023/12/21 03:12:03;;;;;;;0.55;0.55;;;9.20;99.90;;;;;;5059120;28;20028;-74
2023/12/21 03:14:29;;;;;;;0.10;0.10;;;9.30;99.90;;;;;;5066740;28;20036;-71
2023/12/21 03:16:54;;;;;;;1.08;0.80;;;9.30;99.90;;;;;;5066667;28;21956;-73
2023/12/21 03:19:20;;;;;;;0.25;0.25;;;9.30;99.90;;;;;;5065774;28;20471;-72
2023/12/21 03:21:45;;;;;;;0.10;0.10;;;9.30;99.90;;;;;;5066901;28;20050;-71
2023/12/21 03:24:11;;;;;;;0.10;0.10;;;9.30;99.90;;;;;;5067377;28;20063;-68
2023/12/21 03:26:36;;;;;;;0.10;0.10;;;9.30;99.90;;;;;;5066192;28;20028;-77
2023/12/21 03:29:02;;;;;;;5.57;0.47;;;9.30;99.90;;;;;;5068019;28;20476;-75
2023/12/21 03:31:27;;;;;;;1.55;0.20;;;9.30;99.90;;;;;;5095060;28;20487;-74
2023/12/21 03:33:53;;;;;;;0.30;0.30;;;9.30;99.90;;;;;;5066707;28;20471;-71
2023/12/21 03:36:19;;;;;;;0.20;0.20;;;9.30;99.90;;;;;;5060557;28;20044;-68
2023/12/21 03:38:44;;;;;;;1.40;1.33;;;9.30;99.90;;;;;;5067190;28;20048;-74
2023/12/21 03:41:10;;;;;;;0.28;0.28;;;9.30;99.90;;;;;;5068436;28;20090;-71
2023/12/21 03:43:35;;;;;;;0.50;0.50;;;9.30;99.90;;;;;;5066972;28;20037;-73
2023/12/21 03:46:01;;;;;;;0.25;0.25;;;9.30;99.90;;;;;;5062122;28;20106;-69
2023/12/21 03:48:27;;;;;;;7.47;0.40;;;9.30;99.90;;;;;;5056444;28;20041;-69
2023/12/21 03:50:52;;;;;;;0.10;0.10;;;9.30;99.90;;;;;;5065698;28;20091;-70
2023/12/21 03:53:18;;;;;;;0.10;0.10;;;9.30;99.90;;;;;;5051829;28;20118;-70
2023/12/21 03:55:43;;;;;;;0.13;0.13;;;9.30;99.90;;;;;;5050418;28;20041;-68
2023/12/21 03:58:09;;;;;;;0.10;0.10;;;9.40;99.90;;;;;;5053038;28;20036;-70
2023/12/21 04:00:35;;;;;;;0.20;0.20;;;9.30;99.90;;;;;;5051693;28;20037;-70
2023/12/21 04:03:03;;;;;;;0.20;0.20;;;9.30;99.90;;;;;;5073785;28;20361;-69
2023/12/21 04:05:29;;;;;;;0.20;0.20;;;9.30;99.90;;;;;;5092812;28;20043;-69
2023/12/21 04:07:55;;;;;;;0.75;0.68;;;9.30;99.90;;;;;;5054211;28;20041;-71
2023/12/21 04:10:20;;;;;;;0.55;0.55;;;9.20;99.90;;;;;;5058893;28;20028;-72
2023/12/21 04:12:46;;;;;;;0.52;0.52;;;9.20;99.90;;;;;;5068073;28;20094;-76
2023/12/21 04:15:11;;;;;;;5.13;1.45;;;9.30;99.90;;;;;;5068479;28;20040;-70
2023/12/21 04:17:37;;;;;;;0.63;0.63;;;9.30;99.90;;;;;;5052133;28;20076;-70
2023/12/21 04:20:04;;;;;;;0.32;0.32;;;9.30;99.90;;;;;;5054546;28;20037;-73
2023/12/21 04:22:30;;;;;;;0.77;0.50;;;9.20;99.90;;;;;;5057289;28;20098;-74
2023/12/21 04:24:55;;;;;;;0.35;0.35;;;9.30;99.90;;;;;;5059487;28;20475;-71
2023/12/21 04:27:21;;;;;;;0.15;0.15;;;9.30;99.90;;;;;;5061502;28;20090;-70
2023/12/21 04:29:46;;;;;;;0.20;0.20;;;9.40;99.90;;;;;;5070582;28;20156;-75
2023/12/21 04:32:14;;;;;;;0.20;0.20;;;9.30;99.90;;;;;;5058363;28;20032;-74
2023/12/21 04:34:40;;;;;;;0.60;0.60;;;9.30;99.90;;;;;;5069950;28;20101;-72
2023/12/21 04:37:05;;;;;;;1.15;0.43;;;9.30;99.90;;;;;;5057675;28;20069;-68
2023/12/21 04:39:31;;;;;;;0.50;0.47;;;9.30;99.90;;;;;;5067806;28;20403;-76
2023/12/21 04:41:56;;;;;;;0.70;0.57;;;9.30;99.90;;;;;;5069859;28;20496;-69
2023/12/21 04:44:22;;;;;;;0.55;0.40;;;9.40;99.90;;;;;;5062833;28;20044;-68
2023/12/21 04:46:49;;;;;;;0.10;0.10;;;9.40;99.90;;;;;;5066021;28;20043;-73
2023/12/21 04:49:20;;;;;;;0.30;0.30;;;9.40;99.90;;;;;;5050245;28;20082;-71
2023/12/21 04:51:46;;;;;;;2.03;1.15;;;9.40;99.90;;;;;;5058202;28;20071;-72
2023/12/21 04:54:11;;;;;;;0.20;0.20;;;9.40;99.90;;;;;;5103585;28;20068;-74
2023/12/21 04:56:41;;;;;;;1.27;0.28;;;9.40;99.90;;;;;;5056775;28;20386;-71
2023/12/21 04:59:07;;;;;;;0.47;0.32;;;9.50;99.90;;;;;;5070561;28;20040;-71
2023/12/21 05:01:32;;;;;;;0.40;0.40;;;9.50;99.90;;;;;;5063334;28;20118;-73
2023/12/21 05:03:59;;;;;;;0.40;0.38;;;9.50;99.90;;;;;;5068163;28;20094;-76
2023/12/21 05:06:25;;;;;;;0.85;0.47;;;9.50;99.90;;;;;;5068821;28;20041;-70
2023/12/21 05:08:51;;;;;;;0.17;0.15;;;9.40;99.90;;;;;;5087890;28;20102;-71
2023/12/21 05:11:17;;;;;;;1.08;0.50;;;9.50;99.90;;;;;;5067906;28;20099;-72
2023/12/21 05:13:43;;;;;;;0.00;0.00;;;9.50;99.90;;;;;;5099560;28;20032;-73
2023/12/21 05:16:09;;;;;;;1.38;0.40;;;9.50;99.90;;;;;;5060710;28;20032;-73
2023/12/21 05:18:36;;;;;;;1.13;0.30;;;9.50;99.90;;;;;;5056480;28;20399;-72
2023/12/21 05:21:01;;;;;;;0.00;0.00;;;9.50;99.90;;;;;;5072718;28;20045;-73
2023/12/21 05:23:27;;;;;;;0.32;0.30;;;9.50;99.90;;;;;;5057298;28;20091;-74
2023/12/21 05:25:53;;;;;;;0.57;0.50;;;9.50;99.90;;;;;;5058737;28;20047;-77
2023/12/21 05:28:18;;;;;;;3.85;1.17;;;9.50;99.90;;;;;;5071252;28;20044;-71
2023/12/21 05:30:44;;;;;;;0.10;0.10;;;9.60;99.90;;;;;;5073867;28;20108;-72
2023/12/21 05:33:09;;;;;;;0.05;0.05;;;9.60;99.90;;;;;;5060484;28;20029;-70
2023/12/21 05:35:35;;;;;;;0.45;0.25;;;9.60;99.90;;;;;;5095854;27;20048;-68
2023/12/21 05:38:01;;;;;;;0.00;0.00;;;9.60;99.90;;;;;;5064191;28;20198;-72
2023/12/21 05:40:26;;;;;;;0.35;0.35;;;9.70;99.90;;;;;;5070406;28;20036;-72
2023/12/21 05:42:52;;;;;;;0.15;0.15;;;9.60;99.90;;;;;;5068200;28;20123;-71
2023/12/21 05:45:18;;;;;;;0.20;0.20;;;9.60;99.90;;;;;;5070981;28;20040;-72
2023/12/21 05:47:43;;;;;;;0.50;0.50;;;9.60;99.90;;;;;;5061828;28;20152;-73
2023/12/21 05:50:10;;;;;;;2.25;0.38;;;9.70;99.90;;;;;;5067466;28;20469;-75
2023/12/21 05:52:36;;;;;;;0.10;0.10;;;9.60;99.90;;;;;;5063754;28;20043;-70
2023/12/21 05:55:02;;;;;;;0.20;0.20;;;9.70;99.90;;;;;;5068064;28;20036;-69
2023/12/21 05:57:28;;;;;;;0.45;0.40;;;9.70;99.90;;;;;;5095730;28;20090;-74
2023/12/21 05:59:53;;;;;;;0.10;0.10;;;9.70;99.90;;;;;;5069549;28;20041;-73
2023/12/21 06:02:19;;;;;;;0.63;0.63;;;9.70;99.90;;;;;;5069976;28;20063;-75
2023/12/21 06:04:44;;;;;;;0.28;0.28;;;9.60;99.90;;;;;;5069023;28;20063;-69
2023/12/21 06:07:10;;;;;;;0.47;0.25;;;9.60;99.90;;;;;;5067883;28;20041;-74
2023/12/21 06:09:36;;;;;;;8.02;0.57;;;9.60;99.90;;;;;;5074413;28;20119;-71
2023/12/21 06:12:01;;;;;;;0.20;0.20;;;9.60;99.90;;;;;;5070770;28;20453;-72
2023/12/21 06:14:27;;;;;;;0.52;0.50;;;9.60;99.90;;;;;;5071652;28;20075;-73
2023/12/21 06:16:52;;;;;;;0.20;0.20;;;9.60;99.90;;;;;;5094624;28;20115;-69
2023/12/21 06:19:18;;;;;;;0.17;0.17;;;9.60;99.90;;;;;;5056870;28;20074;-71
2023/12/21 06:21:44;;;;;;;0.20;0.20;;;9.60;99.90;;;;;;5063816;28;20044;-73
2023/12/21 06:24:09;;;;;;;0.32;0.22;;;9.60;99.90;;;;;;5069827;28;20522;-71
2023/12/21 06:26:44;;;;;;;0.32;0.32;;;9.60;99.90;;;;;;5067133;28;20489;-72
2023/12/21 06:29:10;;;;;;;0.10;0.10;;;9.60;99.90;;;;;;5064896;28;20052;-73
2023/12/21 06:31:35;;;;;;;6.25;0.40;;;9.60;99.90;;;;;;5066122;28;20036;-72
2023/12/21 06:34:01;;;;;;;0.10;0.10;;;9.70;99.90;;;;;;5064855;28;20134;-73
2023/12/21 06:36:26;;;;;;;0.10;0.10;;;9.70;99.90;;;;;;5060920;28;20103;-70
2023/12/21 06:38:52;;;;;;;0.77;0.68;;;9.70;99.90;;;;;;5065619;28;20052;-74
2023/12/21 06:41:17;;;;;;;0.10;0.10;;;9.60;99.90;;;;;;5102452;28;20032;-75
2023/12/21 06:43:43;;;;;;;0.25;0.25;;;9.60;99.90;;;;;;5062287;28;20098;-73
2023/12/21 06:46:15;;;;;;;0.60;0.40;;;9.70;99.90;;;;;;5058384;28;20032;-72
2023/12/21 06:48:44;;;;;;;2.90;0.28;;;9.60;99.90;;;;;;5070940;28;20045;-69
2023/12/21 06:51:11;;;;;;;0.30;0.28;;;9.70;99.90;;;;;;5066744;28;20040;-74
2023/12/21 06:53:36;;;;;;;0.10;0.10;;;9.60;99.90;;;;;;5064427;28;20391;-71
2023/12/21 06:56:02;;;;;;;0.10;0.10;;;9.60;99.90;;;;;;5062039;28;20032;-70
2023/12/21 06:58:27;;;;;;;0.08;0.08;;;9.60;99.90;;;;;;5069082;28;20041;-75
2023/12/21 07:00:53;;;;;;;0.10;0.10;;;9.60;99.90;;;;;;5088236;28;20167;-69
2023/12/21 07:03:19;;;;;;;0.10;0.10;;;9.60;99.90;;;;;;5064752;28;20052;-75
2023/12/21 07:05:44;;;;;;;0.20;0.20;;;9.50;99.90;;;;;;5067065;28;20052;-71
2023/12/21 07:08:10;;;;;;;1.67;0.20;;;9.50;99.90;;;;;;5069620;28;20033;-74
2023/12/21 07:10:36;;;;;;;0.25;0.10;;;9.50;99.90;;;;;;5068465;28;20144;-75
2023/12/21 07:13:01;;;;;;;0.20;0.20;;;9.50;99.90;;;;;;5064573;28;20415;-72
2023/12/21 07:15:27;;;;;;;0.68;0.68;;;9.40;99.90;;;;;;5063687;28;20357;-73
2023/12/21 07:17:52;;;;;;;2.80;0.50;;;9.50;99.90;;;;;;5059905;28;20578;-76
2023/12/21 07:20:24;;;;;;;0.17;0.17;;;9.50;99.90;;;;;;5062932;28;20502;-76
2023/12/21 07:22:50;;;;;;;0.50;0.40;;;9.40;99.90;;;;;;5062830;28;20113;-68
2023/12/21 07:25:16;;;;;;;0.20;0.17;;;9.50;99.90;;;;;;5070292;28;20063;-75
2023/12/21 07:27:41;;;;;;;0.80;0.47;;;9.40;99.90;;;;;;5062147;28;20041;-71
2023/12/21 07:30:07;;;;;;;0.32;0.32;;;9.50;99.90;;;;;;5070122;28;20529;-72
2023/12/21 07:32:33;;;;;;;0.20;0.20;;;9.50;99.90;;;;;;5069786;28;20445;-73
2023/12/21 07:34:59;;;;;;;0.10;0.10;;;9.50;99.90;;;;;;5069848;28;20028;-71
2023/12/21 07:37:25;;;;;;;0.20;0.20;;;9.50;99.90;;;;;;5065642;28;20049;-74
2023/12/21 07:39:50;;;;;;;0.10;0.10;;;9.50;99.90;;;;;;5064726;28;20462;-73
2023/12/21 07:42:17;;;;;;;2.30;0.98;;;9.50;99.90;;;;;;5068235;28;20368;-72
2023/12/21 07:44:43;;;;;;;0.20;0.20;;;9.50;99.90;;;;;;5061632;28;20045;-72
2023/12/21 07:47:09;;;;;;;3.72;0.13;;;9.50;99.90;;;;;;5066819;28;20044;-71
2023/12/21 07:49:35;;;;;;;0.10;0.10;;;9.50;99.90;;;;;;5058679;28;20036;-70
2023/12/21 07:52:00;;;;;;;0.10;0.10;;;9.50;99.90;;;;;;5061168;28;20399;-72
2023/12/21 07:54:26;;;;;;;0.10;0.10;;;9.50;99.90;;;;;;5062428;28;20036;-74
2023/12/21 07:56:52;;;;;;;0.10;0.10;;;9.50;99.90;;;;;;5068565;28;20040;-69
2023/12/21 07:59:18;;;;;;;0.32;0.25;;;9.50;99.90;;;;;;5071984;28;20033;-72
2023/12/21 08:01:46;;;;;;;0.10;0.10;;;9.50;99.90;;;;;;5076997;28;20040;-74
2023/12/21 08:04:11;;;;;;;0.10;0.10;;;9.50;99.90;;;;;;5060586;28;20033;-73
2023/12/21 08:06:37;;;;;;;0.10;0.10;;;9.60;99.90;;;;;;5085928;28;20056;-72
2023/12/21 08:09:02;;;;;;;0.10;0.10;;;9.60;99.90;;;;;;5063852;28;20064;-71
2023/12/21 08:11:28;;;;;;;0.47;0.45;;;9.50;99.90;;;;;;5067929;28;20399;-72
2023/12/21 08:13:54;;;;;;;0.25;0.25;;;9.50;99.90;;;;;;5058716;28;20044;-73
2023/12/21 08:16:19;;;;;;;0.13;0.13;;;9.60;99.90;;;;;;5066861;28;20043;-70
2023/12/21 08:18:45;;;;;;;0.10;0.10;;;9.50;99.90;;;;;;5060293;28;20460;-71
2023/12/21 08:21:11;;;;;;;0.13;0.13;;;9.50;99.90;;;;;;5065487;28;20037;-73
2023/12/21 08:23:38;;;;;;;0.30;0.30;;;9.60;99.90;;;;;;5059268;28;20040;-73
2023/12/21 08:26:05;;;;;;;0.15;0.15;;;9.50;99.90;;;;;;5062858;28;20059;-72
2023/12/21 08:28:31;;;;;;;0.57;0.38;;;9.50;99.90;;;;;;5063637;28;20443;-73
2023/12/21 08:30:57;;;;;;;0.10;0.10;;;9.60;99.90;;;;;;5068551;28;20040;-73
2023/12/21 08:33:22;;;;;;;0.17;0.17;;;9.60;99.90;;;;;;5069742;28;20089;-75
2023/12/21 08:35:48;;;;;;;0.10;0.10;;;9.60;99.90;;;;;;5065067;28;20051;-74
2023/12/21 08:38:14;;;;;;;0.30;0.30;;;9.60;99.90;;;;;;5068045;28;20044;-75
2023/12/21 08:40:39;;;;;;;0.20;0.20;;;9.70;99.90;;;;;;5067857;28;20045;-75
2023/12/21 08:43:05;;;;;;;0.10;0.10;;;9.60;99.90;;;;;;5075165;28;20036;-74
2023/12/21 08:45:32;;;;;;;0.25;0.25;;;9.70;99.90;;;;;;5069259;28;20167;-75
2023/12/21 08:47:57;;;;;;;0.20;0.10;;;9.70;99.90;;;;;;5064437;28;20037;-74
2023/12/21 08:50:23;;;;;;;0.30;0.30;;;9.60;99.90;;;;;;5062175;28;20041;-77
2023/12/21 08:52:49;;;;;;;0.15;0.15;;;9.70;99.90;;;;;;5063933;28;20029;-75
2023/12/21 08:55:14;;;;;;;0.10;0.10;;;9.70;99.90;;;;;;5066835;28;20095;-76
2023/12/21 08:57:40;;;;;;;4.00;0.93;;;9.60;99.90;;;;;;5058449;28;20064;-74
2023/12/21 09:00:10;;;;;;;0.10;0.10;;;9.70;99.90;;;;;;5063754;28;20088;-76
2023/12/21 09:02:37;;;;;;;9.35;0.52;;;9.70;99.90;;;;;;5063213;28;20115;-73
2023/12/21 09:05:03;;;;;;;0.93;0.85;;;9.80;99.90;;;;;;5066071;28;20080;-73
2023/12/21 09:07:29;;;;;;;0.10;0.10;;;9.80;99.90;;;;;;5063131;28;20130;-73
2023/12/21 09:09:54;;;;;;;1.85;0.40;;;9.70;99.90;;;;;;5065066;28;20029;-73
2023/12/21 09:12:20;;;;;;;0.10;0.10;;;9.70;99.90;;;;;;5054934;28;20037;-74
2023/12/21 09:14:46;;;;;;;0.88;0.22;;;9.70;99.90;;;;;;5066131;28;20094;-74
2023/12/21 09:17:14;;;;;;;0.20;0.20;;;9.80;99.90;;;;;;5061074;28;20064;-74
2023/12/21 09:19:39;;;;;;;7.68;1.17;;;9.70;99.90;;;;;;5065022;28;20032;-73
2023/12/21 09:22:05;;;;;;;0.10;0.10;;;9.80;99.90;;;;;;5063696;28;20467;-76
2023/12/21 09:24:30;;;;;;;12.88;2.15;;;9.80;99.90;;;;;;5061083;28;20487;-72
2023/12/21 09:26:56;;;;;;;0.20;0.20;;;9.70;99.90;;;;;;5064675;28;20434;-75
2023/12/21 09:29:21;;;;;;;0.05;0.05;;;9.80;99.90;;;;;;5047343;28;20044;-75
2023/12/21 09:31:47;;;;;;;0.20;0.20;;;9.80;99.90;;;;;;5068297;28;20128;-76
2023/12/21 09:34:12;;;;;;;0.35;0.20;;;9.90;99.90;;;;;;5049940;28;20119;-72
2023/12/21 09:36:39;;;;;;;0.20;0.20;;;9.90;99.90;;;;;;5061700;28;20108;-74
2023/12/21 09:39:06;;;;;;;0.40;0.40;;;9.90;99.90;;;;;;5051403;28;20531;-73
2023/12/21 09:41:31;;;;;;;2.20;0.63;;;10.00;99.90;;;;;;5058510;28;20036;-72
2023/12/21 09:43:59;;;;;;;0.82;0.68;;;10.00;99.90;;;;;;5058140;28;20048;-74
2023/12/21 09:46:27;;;;;;;0.10;0.10;;;10.00;99.90;;;;;;5092894;28;20538;-70
2023/12/21 09:48:54;;;;;;;0.10;0.10;;;10.10;99.90;;;;;;5065056;28;20044;-73
2023/12/21 09:51:20;;;;;;;0.65;0.38;;;10.20;99.90;;;;;;5066776;28;20039;-74
2023/12/21 09:53:46;;;;;;;0.15;0.15;;;10.20;99.90;;;;;;5069715;28;20041;-74
2023/12/21 09:56:16;;;;;;;0.95;0.55;;;10.10;99.90;;;;;;5066282;28;20033;-70
2023/12/21 09:58:42;;;;;;;1.85;1.45;;;10.20;99.90;;;;;;5070404;28;20036;-77
2023/12/21 10:01:08;;;;;;;1.65;0.20;;;10.30;99.90;;;;;;5071747;28;20043;-75
2023/12/21 10:03:34;;;;;;;0.22;0.20;;;10.30;99.90;;;;;;5067504;28;20396;-69
2023/12/21 10:06:03;;;;;;;0.68;0.45;;;10.30;99.90;;;;;;5075132;28;20395;-76
2023/12/21 10:08:29;;;;;;;0.05;0.05;;;10.50;99.90;;;;;;5068622;28;20048;-77
2023/12/21 10:10:54;;;;;;;3.60;0.28;;;10.50;99.90;;;;;;5072748;28;20032;-73
2023/12/21 10:13:20;;;;;;;8.98;0.50;;;10.60;99.90;;;;;;5070290;28;20032;-69
2023/12/21 10:15:46;;;;;;;0.70;0.30;;;10.70;99.90;;;;;;5069992;28;20440;-72
2023/12/21 10:18:12;;;;;;;0.20;0.20;;;10.70;99.90;;;;;;5067367;28;20048;-76
2023/12/21 10:20:39;;;;;;;0.10;0.10;;;10.70;99.90;;;;;;5067977;28;20039;-75
2023/12/21 10:23:04;;;;;;;0.52;0.52;;;10.70;99.90;;;;;;5072141;28;20044;-73
2023/12/21 10:25:30;;;;;;;0.20;0.20;;;10.80;99.90;;;;;;5071426;28;20063;-69
2023/12/21 10:27:57;;;;;;;3.00;0.35;;;10.70;99.90;;;;;;5065432;28;20040;-70
2023/12/21 10:30:23;;;;;;;0.10;0.10;;;10.80;99.90;;;;;;5066624;28;20068;-75
2023/12/21 10:32:56;;;;;;;0.15;0.08;;;10.80;99.90;;;;;;5054335;28;20036;-72
2023/12/21 10:35:26;;;;;;;0.20;0.20;;;10.90;99.90;;;;;;5071487;28;20040;-70
2023/12/21 10:37:52;;;;;;;1.27;0.63;;;11.00;99.90;;;;;;5074572;28;20039;-68
2023/12/21 10:40:17;;;;;;;0.20;0.20;;;11.00;99.90;;;;;;5073127;28;20478;-72
2023/12/21 10:42:46;;;;;;;0.30;0.28;;;11.10;99.90;;;;;;5053213;28;20403;-73
2023/12/21 10:45:21;;;;;;;0.30;0.30;;;11.10;99.90;;;;;;5064137;28;20095;-71
2023/12/21 10:47:51;;;;;;;0.55;0.55;;;11.10;99.90;;;;;;5081155;28;20211;-71
2023/12/21 10:50:18;;;;;;;2.20;0.47;;;11.10;99.90;;;;;;5069129;28;20172;-74
2023/12/21 10:52:46;;;;;;;0.32;0.32;;;11.10;99.90;;;;;;5064399;28;20029;-76
2023/12/21 10:55:14;;;;;;;1.17;0.15;;;11.10;99.90;;;;;;5063014;28;20564;-74
2023/12/21 10:57:41;;;;;;;0.38;0.38;;;11.20;99.90;;;;;;5069420;28;20486;-70
2023/12/21 11:00:15;;;;;;;0.75;0.57;;;11.10;99.90;;;;;;5068236;28;20062;-72
2023/12/21 11:02:44;;;;;;;0.35;0.35;;;11.20;99.90;;;;;;5066810;28;20043;-67
2023/12/21 11:05:19;;;;;;;0.88;0.88;;;11.20;99.90;;;;;;5065084;28;20396;-73
2023/12/21 11:07:48;;;;;;;0.63;0.47;;;11.10;99.90;;;;;;5078222;28;20033;-72
2023/12/21 11:10:14;;;;;;;4.38;0.50;;;11.00;99.90;;;;;;5065272;28;20033;-72
2023/12/21 11:12:39;;;;;;;3.95;0.30;;;10.90;99.90;;;;;;5071217;28;20047;-68
2023/12/21 11:15:05;;;;;;;0.10;0.10;;;10.90;99.90;;;;;;5073855;28;20032;-67
2023/12/21 11:17:33;;;;;;;2.25;0.68;;;10.90;99.90;;;;;;5075611;28;20479;-70
2023/12/21 11:20:02;;;;;;;0.52;0.52;;;10.90;99.90;;;;;;5078208;28;20043;-69
2023/12/21 11:22:27;;;;;;;0.20;0.20;;;10.90;99.90;;;;;;5100003;28;20048;-68
2023/12/21 11:25:04;;;;;;;0.45;0.45;;;10.80;99.90;;;;;;5064644;28;20483;-68
2023/12/21 11:27:33;;;;;;;1.05;0.93;;;10.90;99.90;;;;;;5064777;28;20040;-71
2023/12/21 11:30:12;;;;;;;0.10;0.10;;;10.90;99.90;;;;;;5069059;28;20040;-67
2023/12/21 11:32:43;;;;;;;0.10;0.10;;;10.90;99.90;;;;;;5063635;28;20041;-72
2023/12/21 11:35:19;;;;;;;18.42;3.63;;;10.80;99.90;;;;;;5057156;28;20071;-70
2023/12/21 11:37:58;;;;;;;0.10;0.10;;;10.90;99.90;;;;;;5067153;28;20453;-70
2023/12/21 11:40:25;;;;;;;2.08;0.30;;;10.90;99.90;;;;;;5062559;28;20036;-72
2023/12/21 11:42:56;;;;;;;6.07;1.65;;;10.90;99.90;;;;;;5092674;28;20055;-72
2023/12/21 11:45:28;;;;;;;1.10;0.68;;;10.90;99.90;;;;;;5063776;28;20035;-73
2023/12/21 11:47:54;;;;;;;;;;;11.00;99.90;;;;;;5067377;28;20044;-70
2023/12/21 11:50:23;;;;;;;2.08;0.55;;;11.00;99.90;;;;;;5065674;28;19962;-72
2023/12/21 11:52:49;;;;;;;0.20;0.20;;;11.00;99.90;;;;;;5094161;28;20033;-71
2023/12/21 11:55:27;;;;;;;0.00;0.00;;;11.00;99.90;;;;;;5063367;28;20075;-69
2023/12/21 11:58:19;;;;;;;3.72;0.57;;;11.00;99.90;;;;;;5065420;28;20040;-71
2023/12/21 12:00:53;;;;;;;2.80;1.42;;;11.00;99.90;;;;;;5089924;28;20040;-70
2023/12/21 12:03:20;;;;;;;0.20;0.20;;;11.20;99.90;;;;;;5065040;28;20044;-68
2023/12/21 12:05:48;;;;;;;0.10;0.10;;;11.30;99.90;;;;;;5062758;28;20036;-71
2023/12/21 12:08:20;;;;;;;0.15;0.15;;;11.30;99.90;;;;;;5064012;28;20388;-69
2023/12/21 12:10:45;;;;;;;0.40;0.40;;;11.20;99.90;;;;;;5073574;28;20041;-69
2023/12/21 12:13:18;;;;;;;0.10;0.10;;;11.00;99.90;;;;;;5066983;28;20032;-71
2023/12/21 12:15:47;;;;;;;1.25;0.75;;;10.80;99.90;;;;;;5061585;28;20040;-70
2023/12/21 12:18:16;;;;;;;0.20;0.20;;;10.80;99.90;;;;;;5060579;28;20547;-66
2023/12/21 12:20:42;;;;;;;3.10;1.40;;;10.90;99.90;;;;;;5061346;28;20154;-65
2023/12/21 12:23:09;;;;;;;0.80;0.80;;;10.90;99.90;;;;;;5062312;28;20080;-67
2023/12/21 12:25:35;;;;;;;0.70;0.47;;;11.00;99.90;;;;;;5062451;28;20404;-68
2023/12/21 12:28:01;;;;;;;2.53;0.88;;;11.00;99.90;;;;;;5067921;28;20037;-67
2023/12/21 12:30:28;;;;;;;0.30;0.30;;;11.10;99.90;;;;;;5060199;28;20443;-68
2023/12/21 12:32:54;;;;;;;3.75;1.30;;;11.10;99.90;;;;;;5057054;28;20037;-68
2023/12/21 12:35:20;;;;;;;0.30;0.30;;;11.20;99.90;;;;;;5060949;28;20492;-68
2023/12/21 12:37:48;;;;;;;1.25;0.80;;;11.20;99.90;;;;;;5050840;28;20131;-66
2023/12/21 12:40:13;;;;;;;0.65;0.65;;;11.20;99.90;;;;;;5062512;28;20057;-68
2023/12/21 12:42:39;;;;;;;0.85;0.50;;;11.20;99.90;;;;;;5065807;28;20040;-66
2023/12/21 12:45:07;;;;;;;3.63;0.98;;;11.30;99.90;;;;;;5061242;28;20488;-67
2023/12/21 12:47:34;;;;;;;8.90;0.52;;;11.30;99.90;;;;;;5068394;28;20052;-65
2023/12/21 12:50:03;;;;;;;3.95;1.17;;;11.30;99.90;;;;;;5066167;28;20151;-68
2023/12/21 12:52:29;;;;;;;1.50;0.57;;;11.30;99.90;;;;;;5060477;28;20408;-66